Latest Weather Forecast - Tuesday 8th October 2019 (6 am)

Forecast Period:  6:00 am 8th October 2019 to 12:00 pm 8th October 2019 
Synopsis: Moisture and instability trailing a tropical wave is affecting the islands
Forecast: Partly cloudy to cloudy, hazy and breezy with scattered showers and possible isolated thunderstorms

Weather 
Advisory/Warning:

None

Winds: Easterly at 20 – 40 km/h ( 12 – 25 mph)
Sea Conditions:

Moderate in open water; with swells 1.8 – 2.5 m

Marine 
Advisory:

Small craft operators and sea bathers should exercise caution.

Upcoming Tides:
High: 02:20 pm 02:56 am    
Low: 07:17 am 09:09 pm

Aviation WX

[Source: ADDS]
METAR
TVSA 261100Z 07007KT 9999 BKN018 26/22 Q1014 NOSIG =
TVSA 261100Z 2612/2712 06008KT 9999 SCT018 TEMPO 2612/2622 SHRA BKN015 SCT036
TAF
TVSA 261100Z 2612/2712 06008KT 9999 SCT018 TEMPO 2612/2622 SHRA BKN015 SCT036 =
SR / SS: 10:22 / 22:12 UTC (Sunrise Sunset 2020-02-26)